Time;durP1;ratioP1;P1;durP2;ratioP2;P2;SDS_P1;SDS_P2;PMS_P1;PMS_P2;Temp;Humidity;BMP_temperature;BMP_pressure;BME280_temperature;BME280_humidity;BME280_pressure;Samples;Min_cycle;Max_cycle;Signal;HPM_P1;HPM_P2
2023/01/06 00:02:12;;;;;;;55.28;26.33;;;;;;;;;;6248977;28;20066;-76
2023/01/06 00:05:14;;;;;;;56.58;26.95;;;;;;;;;;6247802;28;20069;-74
2023/01/06 00:08:16;;;;;;;53.40;26.05;;;;;;;;;;6247236;28;20053;-75
2023/01/06 00:11:18;;;;;;;58.05;27.60;;;;;;;;;;6249345;28;20054;-75
2023/01/06 00:14:21;;;;;;;55.22;26.95;;;;;;;;;;6252255;28;20072;-76
2023/01/06 00:17:22;;;;;;;54.65;27.23;;;;;;;;;;6249954;28;20062;-76
2023/01/06 00:20:24;;;;;;;54.33;25.23;;;;;;;;;;6245970;28;20061;-77
2023/01/06 00:23:26;;;;;;;57.60;26.65;;;;;;;;;;6251841;28;20045;-75
2023/01/06 00:26:27;;;;;;;55.25;28.17;;;;;;;;;;6248434;28;20399;-77
2023/01/06 00:29:30;;;;;;;55.25;25.75;;;;;;;;;;6247607;28;20053;-76
2023/01/06 00:32:32;;;;;;;53.78;25.45;;;;;;;;;;6247913;28;20118;-72
2023/01/06 00:35:34;;;;;;;51.60;24.58;;;;;;;;;;6246116;28;20060;-74
2023/01/06 00:38:36;;;;;;;49.08;23.65;;;;;;;;;;6246449;28;20649;-74
2023/01/06 00:44:58;;;;;;;51.45;24.25;;;;;;;;;;6247516;28;20111;-74
2023/01/06 00:48:00;;;;;;;49.97;23.25;;;;;;;;;;6247767;28;20057;-74
2023/01/06 00:51:01;;;;;;;45.17;24.25;;;;;;;;;;6252699;28;20053;-72
2023/01/06 00:54:03;;;;;;;51.97;25.33;;;;;;;;;;6250162;28;20057;-74
2023/01/06 00:57:07;;;;;;;51.80;24.92;;;;;;;;;;6249711;28;20103;-76
2023/01/06 01:00:11;;;;;;;52.28;25.08;;;;;;;;;;6248993;28;20053;-75
2023/01/06 01:03:12;;;;;;;53.95;26.30;;;;;;;;;;6247307;28;20104;-76
2023/01/06 01:06:16;;;;;;;54.45;25.80;;;;;;;;;;6248140;28;20057;-77
2023/01/06 01:09:20;;;;;;;52.25;25.27;;;;;;;;;;6246709;28;20050;-75
2023/01/06 01:12:22;;;;;;;55.33;27.63;;;;;;;;;;6249123;28;20128;-72
2023/01/06 01:15:25;;;;;;;55.38;27.58;;;;;;;;;;6243413;28;20064;-76
2023/01/06 01:18:26;;;;;;;54.08;26.67;;;;;;;;;;6251993;28;20045;-75
2023/01/06 01:21:28;;;;;;;55.10;26.48;;;;;;;;;;6246963;28;20116;-76
2023/01/06 01:24:30;;;;;;;58.03;28.48;;;;;;;;;;6247728;28;20604;-72
2023/01/06 01:27:31;;;;;;;55.22;26.90;;;;;;;;;;6248391;28;20096;-77
2023/01/06 01:30:34;;;;;;;57.70;28.13;;;;;;;;;;6246459;28;20275;-76
2023/01/06 01:33:37;;;;;;;58.75;27.67;;;;;;;;;;6247131;28;20340;-75
2023/01/06 01:36:39;;;;;;;57.20;28.52;;;;;;;;;;6243957;28;20355;-76
2023/01/06 01:39:41;;;;;;;57.40;27.17;;;;;;;;;;6246838;28;20064;-76
2023/01/06 01:42:43;;;;;;;59.95;27.63;;;;;;;;;;6248114;28;20045;-74
2023/01/06 01:45:48;;;;;;;61.03;27.65;;;;;;;;;;6242165;28;20107;-76
2023/01/06 01:48:50;;;;;;;53.60;26.65;;;;;;;;;;6248840;28;20042;-76
2023/01/06 01:51:54;;;;;;;60.35;28.13;;;;;;;;;;6249218;28;20053;-75
2023/01/06 01:54:55;;;;;;;61.37;29.47;;;;;;;;;;6246562;28;20060;-75
2023/01/06 01:58:00;;;;;;;59.47;28.33;;;;;;;;;;6246912;28;20057;-76
2023/01/06 02:01:04;;;;;;;63.78;29.27;;;;;;;;;;6245008;28;20064;-76
2023/01/06 02:04:06;;;;;;;66.97;29.42;;;;;;;;;;6243897;28;20053;-73
2023/01/06 02:07:09;;;;;;;58.70;27.95;;;;;;;;;;6245582;28;20046;-76
2023/01/06 02:10:13;;;;;;;64.05;28.30;;;;;;;;;;6243147;28;20041;-72
2023/01/06 02:13:14;;;;;;;51.95;26.45;;;;;;;;;;6244521;28;20233;-76
2023/01/06 02:16:21;;;;;;;59.83;28.23;;;;;;;;;;6246124;28;20091;-75
2023/01/06 02:19:42;;;;;;;61.50;28.95;;;;;;;;;;6243610;28;20241;-76
2023/01/06 02:23:10;;;;;;;62.53;28.88;;;;;;;;;;6245948;28;20056;-75
2023/01/06 02:26:59;;;;;;;57.67;28.13;;;;;;;;;;6248200;28;20392;-76
2023/01/06 02:30:21;;;;;;;56.10;28.42;;;;;;;;;;6243595;28;20345;-76
2023/01/06 02:33:29;;;;;;;59.35;28.90;;;;;;;;;;6244035;28;20236;-77
2023/01/06 02:36:35;;;;;;;60.90;27.48;;;;;;;;;;6241568;28;20049;-72
2023/01/06 02:39:43;;;;;;;59.80;29.27;;;;;;;;;;6242175;28;20100;-75
2023/01/06 02:42:52;;;;;;;58.33;30.17;;;;;;;;;;6244469;28;20099;-74
2023/01/06 02:46:01;;;;;;;66.25;30.60;;;;;;;;;;6249045;28;20092;-76
2023/01/06 02:49:11;;;;;;;62.17;31.05;;;;;;;;;;6244227;28;20241;-76
2023/01/06 02:52:19;;;;;;;56.58;30.05;;;;;;;;;;6243195;28;20104;-76
2023/01/06 02:55:23;;;;;;;57.45;29.25;;;;;;;;;;6247699;28;20065;-75
2023/01/06 02:58:29;;;;;;;65.40;30.73;;;;;;;;;;6243468;28;20058;-76
2023/01/06 03:01:35;;;;;;;54.72;29.27;;;;;;;;;;6245520;28;20356;-75
2023/01/06 03:04:39;;;;;;;61.72;29.80;;;;;;;;;;6244188;28;20198;-73
2023/01/06 03:07:42;;;;;;;61.25;31.02;;;;;;;;;;6245288;28;20075;-76
2023/01/06 03:10:45;;;;;;;57.72;29.55;;;;;;;;;;6243863;28;20317;-76
2023/01/06 03:13:50;;;;;;;62.13;30.33;;;;;;;;;;6247017;28;20066;-76
2023/01/06 03:16:52;;;;;;;59.50;31.20;;;;;;;;;;6243053;28;20092;-77
2023/01/06 03:19:55;;;;;;;60.38;30.70;;;;;;;;;;6244506;28;20154;-76
2023/01/06 03:22:57;;;;;;;55.35;28.98;;;;;;;;;;6245446;28;20062;-77
2023/01/06 03:25:58;;;;;;;65.63;31.77;;;;;;;;;;6249351;28;20052;-76
2023/01/06 03:29:00;;;;;;;60.58;30.23;;;;;;;;;;6250208;28;20119;-76
2023/01/06 03:32:06;;;;;;;56.05;30.20;;;;;;;;;;6250480;28;20190;-76
2023/01/06 03:35:20;;;;;;;56.05;30.48;;;;;;;;;;6247927;28;20053;-76
2023/01/06 03:38:31;;;;;;;59.55;30.30;;;;;;;;;;6246985;28;20344;-76
2023/01/06 03:45:04;;;;;;;56.22;29.38;;;;;;;;;;6248630;28;20113;-75
2023/01/06 03:48:11;;;;;;;55.45;29.90;;;;;;;;;;6248414;28;20206;-75
2023/01/06 03:51:27;;;;;;;55.63;29.10;;;;;;;;;;6248587;28;20045;-74
2023/01/06 03:54:35;;;;;;;60.92;29.95;;;;;;;;;;6249588;28;20698;-76
2023/01/06 03:57:38;;;;;;;58.15;30.08;;;;;;;;;;6251208;28;20076;-76
2023/01/06 04:00:40;;;;;;;60.08;30.52;;;;;;;;;;6248848;28;20058;-74
2023/01/06 04:03:44;;;;;;;59.42;31.10;;;;;;;;;;6247427;28;20072;-75
2023/01/06 04:06:47;;;;;;;58.45;29.98;;;;;;;;;;6247084;28;20329;-76
2023/01/06 04:09:49;;;;;;;55.28;30.90;;;;;;;;;;6246609;28;20160;-76
2023/01/06 04:12:51;;;;;;;60.17;30.17;;;;;;;;;;6247134;28;20083;-75
2023/01/06 04:15:53;;;;;;;61.97;29.73;;;;;;;;;;6249053;28;20257;-76
2023/01/06 04:18:54;;;;;;;61.50;31.85;;;;;;;;;;6249034;28;20280;-76
2023/01/06 04:21:58;;;;;;;65.18;32.35;;;;;;;;;;6248677;28;20256;-76
2023/01/06 04:25:00;;;;;;;68.10;32.22;;;;;;;;;;6247766;28;20107;-76
2023/01/06 04:28:01;;;;;;;57.40;29.35;;;;;;;;;;6250973;28;20057;-72
2023/01/06 04:31:03;;;;;;;56.83;29.83;;;;;;;;;;6247380;28;20369;-76
2023/01/06 04:34:05;;;;;;;55.55;29.20;;;;;;;;;;6245541;28;20096;-76
2023/01/06 04:37:08;;;;;;;59.80;31.15;;;;;;;;;;6245872;28;20064;-74
2023/01/06 04:40:10;;;;;;;62.03;29.98;;;;;;;;;;6245998;28;20072;-76
2023/01/06 04:43:15;;;;;;;56.50;30.42;;;;;;;;;;6247839;28;20643;-77
2023/01/06 04:46:16;;;;;;;57.03;30.13;;;;;;;;;;6249226;28;20087;-76
2023/01/06 04:49:18;;;;;;;58.45;30.55;;;;;;;;;;6246093;28;20046;-76
2023/01/06 04:52:21;;;;;;;60.35;31.05;;;;;;;;;;6246696;28;20103;-76
2023/01/06 04:55:22;;;;;;;56.45;29.95;;;;;;;;;;6248759;28;20053;-76
2023/01/06 04:58:24;;;;;;;58.65;30.85;;;;;;;;;;6247215;28;20058;-76
2023/01/06 05:01:26;;;;;;;55.80;30.58;;;;;;;;;;6247177;28;20070;-76
2023/01/06 05:04:28;;;;;;;60.03;30.80;;;;;;;;;;6244332;28;20099;-76
2023/01/06 05:07:31;;;;;;;57.55;30.50;;;;;;;;;;6246987;28;20096;-75
2023/01/06 05:10:33;;;;;;;57.45;32.20;;;;;;;;;;6246418;28;20069;-76
2023/01/06 05:13:34;;;;;;;57.45;31.20;;;;;;;;;;6244685;28;20068;-77
2023/01/06 05:16:37;;;;;;;63.50;31.10;;;;;;;;;;6246872;28;20057;-76
2023/01/06 05:19:40;;;;;;;60.60;31.02;;;;;;;;;;6246178;28;20049;-75
2023/01/06 05:22:43;;;;;;;62.83;32.33;;;;;;;;;;6249003;28;20071;-76
2023/01/06 05:25:45;;;;;;;58.40;31.02;;;;;;;;;;6247996;28;20098;-76
2023/01/06 05:28:47;;;;;;;58.22;30.88;;;;;;;;;;6246948;28;20054;-75
2023/01/06 05:31:49;;;;;;;55.25;30.25;;;;;;;;;;6245712;28;20050;-75
2023/01/06 05:34:50;;;;;;;52.67;28.88;;;;;;;;;;6246500;28;20111;-77
2023/01/06 05:37:55;;;;;;;58.20;31.00;;;;;;;;;;6245999;28;20058;-73
2023/01/06 05:40:57;;;;;;;56.03;30.83;;;;;;;;;;6244801;28;20057;-75
2023/01/06 05:43:58;;;;;;;64.38;30.90;;;;;;;;;;6247121;28;20372;-75
2023/01/06 05:47:00;;;;;;;62.47;30.33;;;;;;;;;;6245434;28;20064;-75
2023/01/06 05:50:02;;;;;;;55.35;30.58;;;;;;;;;;6245079;28;20049;-76
2023/01/06 05:53:05;;;;;;;57.17;30.80;;;;;;;;;;6247878;28;20113;-75
2023/01/06 05:56:07;;;;;;;55.28;30.73;;;;;;;;;;6246825;28;20280;-77
2023/01/06 05:59:09;;;;;;;54.83;28.52;;;;;;;;;;6248412;28;20041;-77
2023/01/06 06:02:11;;;;;;;57.70;30.67;;;;;;;;;;6246581;28;20060;-76
2023/01/06 06:05:12;;;;;;;57.33;30.67;;;;;;;;;;6244122;28;20061;-76
2023/01/06 06:08:15;;;;;;;53.45;28.92;;;;;;;;;;6246650;28;20398;-76
2023/01/06 06:11:18;;;;;;;51.67;28.08;;;;;;;;;;6247453;28;20053;-75
2023/01/06 06:14:20;;;;;;;67.20;37.08;;;;;;;;;;6244834;28;20112;-77
2023/01/06 06:17:24;;;;;;;54.25;29.13;;;;;;;;;;6247396;28;20057;-76
2023/01/06 06:20:25;;;;;;;59.90;31.13;;;;;;;;;;6246141;28;20121;-77
2023/01/06 06:23:28;;;;;;;53.13;29.02;;;;;;;;;;6246004;28;20056;-76
2023/01/06 06:26:30;;;;;;;58.55;29.08;;;;;;;;;;6244819;28;20069;-77
2023/01/06 06:29:32;;;;;;;60.47;29.65;;;;;;;;;;6246948;28;20383;-76
2023/01/06 06:32:33;;;;;;;59.17;29.70;;;;;;;;;;6243973;28;20054;-75
2023/01/06 06:35:35;;;;;;;58.42;28.70;;;;;;;;;;6247241;28;20128;-76
2023/01/06 06:38:38;;;;;;;58.00;29.90;;;;;;;;;;6242509;28;20046;-75
2023/01/06 06:41:40;;;;;;;56.85;29.23;;;;;;;;;;6244306;28;20107;-76
2023/01/06 06:44:41;;;;;;;62.40;31.05;;;;;;;;;;6246211;28;20324;-76
2023/01/06 06:47:43;;;;;;;59.35;28.55;;;;;;;;;;6245521;28;20054;-74
2023/01/06 06:50:45;;;;;;;60.30;31.05;;;;;;;;;;6245316;28;20131;-77
2023/01/06 06:53:49;;;;;;;62.00;31.98;;;;;;;;;;6244778;28;20127;-77
2023/01/06 06:56:50;;;;;;;61.42;32.47;;;;;;;;;;6245125;28;20057;-77
2023/01/06 06:59:52;;;;;;;65.22;30.08;;;;;;;;;;6249343;28;20410;-75
2023/01/06 07:02:54;;;;;;;67.82;32.38;;;;;;;;;;6248260;28;20372;-77
2023/01/06 07:05:55;;;;;;;62.47;32.58;;;;;;;;;;6248246;28;20152;-76
2023/01/06 07:08:58;;;;;;;59.28;30.77;;;;;;;;;;6248987;28;20084;-73
2023/01/06 07:12:00;;;;;;;60.90;31.45;;;;;;;;;;6251888;28;20049;-76
2023/01/06 07:15:02;;;;;;;59.40;30.35;;;;;;;;;;6249318;28;20116;-76
2023/01/06 07:18:04;;;;;;;58.30;30.80;;;;;;;;;;6250459;28;20129;-80
2023/01/06 07:21:07;;;;;;;62.80;31.45;;;;;;;;;;6250667;28;20079;-76
2023/01/06 07:24:10;;;;;;;67.55;32.30;;;;;;;;;;6248326;28;20073;-76
2023/01/06 07:27:12;;;;;;;63.40;32.90;;;;;;;;;;6249280;28;20103;-78
2023/01/06 07:30:15;;;;;;;61.78;32.40;;;;;;;;;;6249564;28;20480;-78
2023/01/06 07:33:17;;;;;;;62.72;30.45;;;;;;;;;;6249248;28;20056;-74
2023/01/06 07:36:18;;;;;;;64.80;32.00;;;;;;;;;;6247164;28;20116;-74
2023/01/06 07:39:21;;;;;;;66.40;33.05;;;;;;;;;;6248394;28;20107;-76
2023/01/06 07:42:23;;;;;;;58.35;30.73;;;;;;;;;;6249923;28;20138;-77
2023/01/06 07:45:25;;;;;;;62.10;31.88;;;;;;;;;;6250217;28;20478;-75
2023/01/06 07:48:27;;;;;;;63.92;32.72;;;;;;;;;;6248114;28;20049;-75
2023/01/06 07:51:28;;;;;;;66.72;33.53;;;;;;;;;;6247618;28;20318;-77
2023/01/06 07:54:31;;;;;;;61.88;32.15;;;;;;;;;;6248994;28;20053;-77
2023/01/06 07:57:33;;;;;;;60.95;32.33;;;;;;;;;;6247058;28;20065;-73
2023/01/06 08:00:35;;;;;;;59.53;32.38;;;;;;;;;;6251089;28;20057;-77
2023/01/06 08:03:37;;;;;;;63.38;33.70;;;;;;;;;;6250218;28;20057;-77
2023/01/06 08:06:39;;;;;;;63.25;32.83;;;;;;;;;;6245699;28;20061;-76
2023/01/06 08:09:42;;;;;;;66.00;32.70;;;;;;;;;;6246912;28;20041;-75
2023/01/06 08:12:44;;;;;;;62.17;33.50;;;;;;;;;;6247741;28;20170;-76
2023/01/06 08:15:50;;;;;;;57.15;31.95;;;;;;;;;;6247497;28;20050;-76
2023/01/06 08:18:52;;;;;;;64.50;33.58;;;;;;;;;;6247740;28;20057;-76
2023/01/06 08:21:53;;;;;;;61.08;32.20;;;;;;;;;;6245995;28;20058;-76
2023/01/06 08:24:56;;;;;;;61.28;32.97;;;;;;;;;;6247897;28;20061;-76
2023/01/06 08:27:59;;;;;;;60.45;31.65;;;;;;;;;;6249362;28;20068;-77
2023/01/06 08:31:01;;;;;;;57.22;31.92;;;;;;;;;;6248443;28;20059;-76
2023/01/06 08:34:03;;;;;;;58.80;31.63;;;;;;;;;;6244816;28;20189;-76
2023/01/06 08:37:04;;;;;;;60.78;31.10;;;;;;;;;;6221387;28;20061;-76
2023/01/06 08:40:09;;;;;;;60.03;31.05;;;;;;;;;;6246848;28;20099;-76
2023/01/06 08:43:10;;;;;;;57.88;31.30;;;;;;;;;;6246273;28;20045;-75
2023/01/06 08:46:13;;;;;;;58.42;30.73;;;;;;;;;;6248958;28;20045;-75
2023/01/06 08:49:15;;;;;;;57.15;30.27;;;;;;;;;;6247322;28;20062;-76
2023/01/06 08:52:17;;;;;;;59.40;29.15;;;;;;;;;;6250099;28;20053;-75
2023/01/06 08:55:20;;;;;;;58.63;29.77;;;;;;;;;;6248105;28;20128;-76
2023/01/06 08:58:22;;;;;;;54.35;28.65;;;;;;;;;;6246133;28;20390;-75
2023/01/06 09:01:26;;;;;;;54.53;27.13;;;;;;;;;;6247859;28;20132;-76
2023/01/06 09:04:28;;;;;;;46.80;25.70;;;;;;;;;;6247552;28;20053;-75
2023/01/06 09:07:29;;;;;;;52.83;27.20;;;;;;;;;;6247796;28;20053;-72
2023/01/06 09:10:32;;;;;;;51.65;26.05;;;;;;;;;;6246825;28;20053;-73
2023/01/06 09:13:35;;;;;;;52.80;25.58;;;;;;;;;;6248757;28;20044;-76
2023/01/06 09:16:37;;;;;;;48.40;26.17;;;;;;;;;;6246661;28;20050;-72
2023/01/06 09:19:38;;;;;;;44.15;24.58;;;;;;;;;;6249148;28;20238;-76
2023/01/06 09:22:40;;;;;;;48.17;24.60;;;;;;;;;;6246291;28;20052;-77
2023/01/06 09:25:43;;;;;;;47.40;24.67;;;;;;;;;;6247497;28;20060;-77
2023/01/06 09:28:46;;;;;;;49.83;25.42;;;;;;;;;;6246846;28;20057;-73
2023/01/06 09:31:48;;;;;;;49.22;24.90;;;;;;;;;;6245788;28;20060;-77
2023/01/06 09:34:49;;;;;;;47.75;23.83;;;;;;;;;;6247779;28;20060;-76
2023/01/06 09:37:51;;;;;;;42.17;23.65;;;;;;;;;;6245176;28;20061;-77
2023/01/06 09:41:13;;;;;;;46.53;23.90;;;;;;;;;;6245434;28;20095;-75
2023/01/06 09:44:16;;;;;;;43.30;21.67;;;;;;;;;;6242626;28;20120;-76
2023/01/06 09:47:21;;;;;;;47.10;24.00;;;;;;;;;;6248026;28;20057;-72
2023/01/06 09:50:30;;;;;;;44.97;22.40;;;;;;;;;;6246653;28;20045;-77
2023/01/06 09:53:34;;;;;;;44.55;22.13;;;;;;;;;;6244708;28;20087;-76
2023/01/06 09:56:38;;;;;;;43.45;21.58;;;;;;;;;;6244130;28;20109;-76
2023/01/06 09:59:46;;;;;;;41.47;21.83;;;;;;;;;;6249397;28;20506;-76
2023/01/06 10:02:47;;;;;;;44.83;23.75;;;;;;;;;;6247798;28;20128;-76
2023/01/06 10:05:59;;;;;;;50.60;23.48;;;;;;;;;;6244798;28;20352;-74
2023/01/06 10:09:09;;;;;;;45.40;22.67;;;;;;;;;;6245677;28;20053;-76
2023/01/06 10:12:23;;;;;;;42.40;22.48;;;;;;;;;;6245194;28;20100;-76
2023/01/06 10:15:31;;;;;;;46.58;23.67;;;;;;;;;;6244653;28;20045;-78
2023/01/06 10:18:42;;;;;;;40.20;22.00;;;;;;;;;;6244111;28;20285;-75
2023/01/06 10:21:47;;;;;;;43.97;22.35;;;;;;;;;;6244805;28;20049;-75
2023/01/06 10:24:54;;;;;;;44.78;22.60;;;;;;;;;;6246161;28;20057;-76
2023/01/06 10:28:02;;;;;;;40.67;21.38;;;;;;;;;;6247574;28;20053;-76
2023/01/06 10:31:06;;;;;;;42.05;23.02;;;;;;;;;;6247483;28;20062;-75
2023/01/06 10:34:17;;;;;;;43.70;22.00;;;;;;;;;;6251339;28;20096;-78
2023/01/06 10:37:22;;;;;;;41.38;22.13;;;;;;;;;;6250590;28;20903;-74
2023/01/06 10:40:25;;;;;;;46.03;21.70;;;;;;;;;;6251524;28;20111;-76
2023/01/06 10:43:28;;;;;;;50.83;23.03;;;;;;;;;;6248051;28;20120;-75
2023/01/06 10:46:34;;;;;;;41.92;22.73;;;;;;;;;;6249801;28;20460;-76
2023/01/06 10:49:36;;;;;;;43.60;21.92;;;;;;;;;;6249789;28;20045;-75
2023/01/06 10:52:38;;;;;;;40.05;22.45;;;;;;;;;;6250834;28;20045;-76
2023/01/06 10:55:44;;;;;;;41.05;22.73;;;;;;;;;;6248572;28;20053;-76
2023/01/06 10:58:50;;;;;;;46.60;23.48;;;;;;;;;;6253633;28;20352;-74
2023/01/06 11:01:54;;;;;;;41.85;22.65;;;;;;;;;;6249866;28;20156;-76
2023/01/06 11:05:01;;;;;;;44.47;21.17;;;;;;;;;;6248703;28;20049;-75
2023/01/06 11:08:06;;;;;;;41.65;22.02;;;;;;;;;;6250095;28;20061;-76
2023/01/06 11:11:13;;;;;;;48.78;23.48;;;;;;;;;;6249347;28;20057;-76
2023/01/06 11:14:18;;;;;;;41.63;22.10;;;;;;;;;;6248748;28;20522;-75
2023/01/06 11:17:21;;;;;;;46.50;22.60;;;;;;;;;;6249986;28;20045;-75
2023/01/06 11:20:33;;;;;;;48.95;23.50;;;;;;;;;;6251145;28;20054;-75
2023/01/06 11:23:36;;;;;;;44.83;22.63;;;;;;;;;;6247394;28;20060;-76
2023/01/06 11:26:44;;;;;;;50.38;24.92;;;;;;;;;;6250603;28;20281;-71
2023/01/06 11:29:48;;;;;;;44.85;23.17;;;;;;;;;;6250481;28;20060;-76
2023/01/06 11:32:49;;;;;;;47.38;24.00;;;;;;;;;;6248519;28;20152;-75
2023/01/06 11:35:51;;;;;;;52.17;22.90;;;;;;;;;;6248888;28;20111;-75
2023/01/06 11:38:56;;;;;;;44.63;23.13;;;;;;;;;;6249937;28;20950;-75
2023/01/06 11:42:05;;;;;;;42.88;22.92;;;;;;;;;;6251921;28;20084;-75
2023/01/06 11:45:27;;;;;;;45.95;23.30;;;;;;;;;;6249491;28;20092;-76
2023/01/06 11:48:32;;;;;;;46.28;23.40;;;;;;;;;;6247626;28;20056;-75
2023/01/06 11:51:47;;;;;;;46.63;23.83;;;;;;;;;;6248692;28;20099;-75
2023/01/06 11:54:58;;;;;;;48.90;22.80;;;;;;;;;;6249279;28;20053;-78
2023/01/06 11:58:03;;;;;;;48.42;24.10;;;;;;;;;;6247420;28;20077;-71
2023/01/06 12:01:08;;;;;;;45.22;22.52;;;;;;;;;;6247748;28;20037;-75
2023/01/06 12:04:15;;;;;;;46.95;23.33;;;;;;;;;;6251827;28;20087;-75
2023/01/06 12:07:20;;;;;;;49.33;24.38;;;;;;;;;;6250224;28;20060;-73
2023/01/06 12:10:24;;;;;;;44.42;23.63;;;;;;;;;;6247634;28;20053;-76
2023/01/06 12:13:27;;;;;;;41.63;22.17;;;;;;;;;;6244102;28;20042;-74
2023/01/06 12:16:35;;;;;;;42.25;21.95;;;;;;;;;;6248459;28;20325;-75
2023/01/06 12:19:41;;;;;;;45.35;23.30;;;;;;;;;;6248263;28;20096;-75
2023/01/06 12:22:45;;;;;;;44.08;21.50;;;;;;;;;;6247992;28;20063;-72
2023/01/06 12:25:48;;;;;;;47.20;23.52;;;;;;;;;;6249939;28;20042;-77
2023/01/06 12:28:51;;;;;;;49.63;25.15;;;;;;;;;;6247178;28;20644;-77
2023/01/06 12:32:02;;;;;;;47.58;23.63;;;;;;;;;;6250352;28;20109;-77
2023/01/06 12:35:05;;;;;;;47.78;23.92;;;;;;;;;;6248504;28;20053;-77
2023/01/06 12:38:11;;;;;;;52.30;24.83;;;;;;;;;;6248516;28;20045;-77
2023/01/06 12:41:17;;;;;;;49.17;25.20;;;;;;;;;;6245193;28;20057;-74
2023/01/06 12:44:28;;;;;;;52.83;25.95;;;;;;;;;;6249177;28;20264;-75
2023/01/06 12:47:35;;;;;;;49.55;25.60;;;;;;;;;;6247439;28;20041;-72
2023/01/06 12:50:40;;;;;;;50.78;25.75;;;;;;;;;;6250413;28;20053;-75
2023/01/06 12:53:45;;;;;;;55.95;27.23;;;;;;;;;;6249124;28;20064;-75
2023/01/06 12:57:04;;;;;;;52.25;26.13;;;;;;;;;;6247299;28;20049;-73
2023/01/06 13:00:29;;;;;;;51.67;28.02;;;;;;;;;;6245824;28;20065;-77
2023/01/06 13:04:06;;;;;;;53.03;24.90;;;;;;;;;;6247937;28;20065;-74
2023/01/06 13:07:19;;;;;;;46.35;23.55;;;;;;;;;;6231787;28;20122;-77
2023/01/06 13:10:28;;;;;;;49.60;25.52;;;;;;;;;;6246109;28;20383;-73
2023/01/06 13:13:45;;;;;;;46.35;24.13;;;;;;;;;;6245519;28;20109;-77
2023/01/06 13:16:51;;;;;;;46.30;24.98;;;;;;;;;;6244891;28;20053;-75
2023/01/06 13:19:54;;;;;;;50.20;25.02;;;;;;;;;;6246942;28;20104;-77
2023/01/06 13:23:05;;;;;;;44.65;24.45;;;;;;;;;;6246152;28;20056;-73
2023/01/06 13:26:17;;;;;;;41.90;22.83;;;;;;;;;;6245908;28;20375;-73
2023/01/06 13:29:32;;;;;;;42.78;23.60;;;;;;;;;;6245136;28;20057;-77
2023/01/06 13:32:47;;;;;;;45.63;24.15;;;;;;;;;;6244683;28;20057;-77
2023/01/06 13:35:58;;;;;;;44.15;21.85;;;;;;;;;;6247297;28;20064;-77
2023/01/06 13:39:04;;;;;;;43.60;22.13;;;;;;;;;;6246926;28;20142;-74
2023/01/06 13:42:06;;;;;;;48.80;23.33;;;;;;;;;;6245434;28;20324;-75
2023/01/06 13:45:14;;;;;;;45.33;23.58;;;;;;;;;;6245308;28;20188;-74
2023/01/06 13:48:19;;;;;;;45.17;22.33;;;;;;;;;;6245564;28;20057;-74
2023/01/06 13:51:23;;;;;;;42.47;22.75;;;;;;;;;;6246399;28;20053;-75
2023/01/06 13:55:04;;;;;;;48.58;24.05;;;;;;;;;;6246666;28;20075;-75
2023/01/06 13:58:34;;;;;;;50.38;24.92;;;;;;;;;;6247734;28;20341;-75
2023/01/06 14:01:36;;;;;;;55.92;26.63;;;;;;;;;;6244879;28;20350;-74
2023/01/06 14:04:46;;;;;;;52.88;26.45;;;;;;;;;;6246541;28;20332;-75
2023/01/06 14:07:50;;;;;;;51.65;26.20;;;;;;;;;;6245414;28;20096;-77
2023/01/06 14:10:59;;;;;;;50.25;26.33;;;;;;;;;;6246737;28;20066;-76
2023/01/06 14:14:03;;;;;;;50.92;26.70;;;;;;;;;;6245134;28;20060;-76
2023/01/06 14:17:05;;;;;;;57.37;27.27;;;;;;;;;;6246188;28;20099;-77
2023/01/06 14:20:21;;;;;;;53.25;26.38;;;;;;;;;;6244844;28;20054;-77
2023/01/06 14:23:24;;;;;;;57.60;27.42;;;;;;;;;;6245551;28;20320;-77
2023/01/06 14:26:54;;;;;;;52.17;26.13;;;;;;;;;;6245266;28;20062;-71
2023/01/06 14:30:04;;;;;;;58.60;27.38;;;;;;;;;;6245866;28;20042;-75
2023/01/06 14:33:30;;;;;;;60.17;26.70;;;;;;;;;;6242397;28;20096;-75
2023/01/06 14:36:32;;;;;;;57.53;26.75;;;;;;;;;;6246310;28;20071;-75
2023/01/06 14:39:34;;;;;;;50.33;24.63;;;;;;;;;;6250500;28;20091;-75
2023/01/06 14:42:42;;;;;;;49.42;27.08;;;;;;;;;;6248592;28;20057;-76
2023/01/06 14:45:44;;;;;;;49.88;25.60;;;;;;;;;;6246891;28;20118;-75
2023/01/06 14:48:50;;;;;;;52.50;25.40;;;;;;;;;;6243780;28;20234;-75
2023/01/06 14:51:54;;;;;;;48.78;25.08;;;;;;;;;;6242099;28;20068;-75
2023/01/06 14:54:56;;;;;;;48.40;26.55;;;;;;;;;;6247632;28;20045;-76
2023/01/06 14:57:59;;;;;;;52.65;26.52;;;;;;;;;;6243640;28;20060;-76
2023/01/06 15:01:01;;;;;;;52.25;26.92;;;;;;;;;;6245682;28;20104;-75
2023/01/06 15:04:04;;;;;;;51.63;26.77;;;;;;;;;;6242287;28;20054;-76
2023/01/06 15:07:17;;;;;;;53.22;27.50;;;;;;;;;;6245067;28;20323;-76
2023/01/06 15:10:21;;;;;;;53.10;25.75;;;;;;;;;;6244321;28;20059;-76
2023/01/06 15:13:29;;;;;;;49.70;25.48;;;;;;;;;;6245476;28;20063;-74
2023/01/06 15:16:34;;;;;;;49.22;26.77;;;;;;;;;;6244901;28;20045;-73
2023/01/06 15:19:36;;;;;;;48.25;25.45;;;;;;;;;;6245939;28;20052;-77
2023/01/06 15:22:39;;;;;;;48.92;24.67;;;;;;;;;;6244917;28;20732;-77
2023/01/06 15:25:41;;;;;;;45.58;23.02;;;;;;;;;;6249632;28;20117;-74
2023/01/06 15:28:56;;;;;;;51.00;26.15;;;;;;;;;;6252226;28;20060;-75
2023/01/06 15:31:58;;;;;;;51.03;24.50;;;;;;;;;;6248130;28;20442;-73
2023/01/06 15:35:00;;;;;;;48.75;24.88;;;;;;;;;;6252251;28;20056;-77
2023/01/06 15:38:05;;;;;;;48.28;24.65;;;;;;;;;;6250070;28;20060;-77
2023/01/06 15:41:31;;;;;;;48.15;25.13;;;;;;;;;;6252777;28;20069;-79
2023/01/06 15:44:33;;;;;;;48.08;25.05;;;;;;;;;;6249883;28;20116;-77
2023/01/06 15:47:37;;;;;;;45.90;25.05;;;;;;;;;;6249612;28;20202;-74
2023/01/06 15:50:38;;;;;;;48.58;24.00;;;;;;;;;;6248848;28;20748;-74
2023/01/06 15:53:40;;;;;;;46.17;23.13;;;;;;;;;;6248348;28;20325;-74
2023/01/06 15:56:42;;;;;;;49.13;25.60;;;;;;;;;;6247072;28;20064;-74
2023/01/06 15:59:53;;;;;;;50.50;24.52;;;;;;;;;;6251653;28;20328;-74
2023/01/06 16:02:55;;;;;;;46.17;24.02;;;;;;;;;;6248472;28;20055;-75
2023/01/06 16:06:04;;;;;;;49.15;24.27;;;;;;;;;;6249787;28;20249;-76
2023/01/06 16:09:29;;;;;;;48.03;23.67;;;;;;;;;;6248307;28;20356;-74
2023/01/06 16:12:30;;;;;;;;;;;;;;;;;;6248177;28;20110;-73
2023/01/06 16:15:44;;;;;;;45.17;22.98;;;;;;;;;;6246077;28;19922;-76
2023/01/06 16:18:46;;;;;;;51.10;24.05;;;;;;;;;;6251205;28;20352;-77
2023/01/06 16:21:52;;;;;;;49.85;23.88;;;;;;;;;;6245440;28;20045;-78
2023/01/06 16:24:53;;;;;;;48.60;23.00;;;;;;;;;;6248330;28;20052;-75
2023/01/06 16:27:58;;;;;;;44.80;22.25;;;;;;;;;;6247712;28;20041;-75
2023/01/06 16:31:04;;;;;;;;;;;;;;;;;;6248456;28;20053;-77
2023/01/06 16:34:22;;;;;;;45.15;23.00;;;;;;;;;;6248271;28;19920;-77
2023/01/06 16:37:23;;;;;;;47.50;23.77;;;;;;;;;;6247761;28;20049;-75
2023/01/06 16:40:27;;;;;;;43.95;23.98;;;;;;;;;;6245739;28;20321;-77
2023/01/06 16:43:28;;;;;;;53.90;25.42;;;;;;;;;;6244364;28;20069;-77
2023/01/06 16:46:31;;;;;;;49.70;23.30;;;;;;;;;;6248328;28;20057;-77
2023/01/06 16:49:33;;;;;;;47.63;24.30;;;;;;;;;;6246389;28;20053;-76
2023/01/06 16:52:35;;;;;;;49.65;23.85;;;;;;;;;;6249337;28;20107;-76
2023/01/06 16:55:38;;;;;;;42.55;23.45;;;;;;;;;;6248579;28;20229;-80
2023/01/06 16:58:39;;;;;;;45.90;24.00;;;;;;;;;;6247379;28;20059;-74
2023/01/06 17:01:43;;;;;;;45.17;24.85;;;;;;;;;;6249069;28;20072;-77
2023/01/06 17:04:46;;;;;;;49.05;24.45;;;;;;;;;;6248076;28;20096;-75
2023/01/06 17:07:48;;;;;;;44.88;24.27;;;;;;;;;;6247727;28;20053;-77
2023/01/06 17:10:49;;;;;;;49.83;24.88;;;;;;;;;;6247427;28;20060;-76
2023/01/06 17:13:54;;;;;;;50.78;25.80;;;;;;;;;;6247087;28;20357;-80
2023/01/06 17:17:11;;;;;;;49.92;26.30;;;;;;;;;;6243785;28;20214;-78
2023/01/06 17:20:13;;;;;;;49.72;25.85;;;;;;;;;;6248493;28;20061;-76
2023/01/06 17:23:15;;;;;;;47.92;25.00;;;;;;;;;;6244580;28;20049;-78
2023/01/06 17:26:18;;;;;;;52.97;26.33;;;;;;;;;;6250881;28;20206;-77
2023/01/06 17:29:21;;;;;;;52.85;26.77;;;;;;;;;;6243551;28;20276;-72
2023/01/06 17:32:29;;;;;;;54.70;26.85;;;;;;;;;;6246673;28;20057;-79
2023/01/06 17:35:31;;;;;;;55.00;25.67;;;;;;;;;;6247223;28;20128;-79
2023/01/06 17:38:33;;;;;;;52.92;26.10;;;;;;;;;;6245158;28;20903;-77
2023/01/06 17:41:35;;;;;;;52.72;27.20;;;;;;;;;;6245695;28;20053;-79
2023/01/06 17:44:38;;;;;;;51.92;25.60;;;;;;;;;;6245812;28;20049;-79
2023/01/06 17:47:45;;;;;;;59.50;26.27;;;;;;;;;;6246005;28;20057;-79
2023/01/06 17:50:48;;;;;;;56.10;26.52;;;;;;;;;;6244769;28;20060;-79
2023/01/06 17:57:12;;;;;;;57.38;27.42;;;;;;;;;;6246873;28;20120;-76
2023/01/06 18:00:21;;;;;;;64.95;28.90;;;;;;;;;;6247012;28;20045;-77
2023/01/06 18:03:25;;;;;;;60.38;27.60;;;;;;;;;;6246580;28;20061;-77
2023/01/06 18:06:36;;;;;;;65.88;30.27;;;;;;;;;;6244601;28;20049;-77
2023/01/06 18:09:39;;;;;;;62.28;29.90;;;;;;;;;;6247585;28;20046;-77